sensor_id;sensor_type;location;lat;lon;timestamp;P1;durP1;ratioP1;P2;durP2;ratioP2
65047;SDS011;52089;51.362;-2.384;2022-09-27T00:00:40;5.33;;;0.70;;
65047;SDS011;52089;51.362;-2.384;2022-09-27T00:04:25;3.43;;;0.60;;
65047;SDS011;52089;51.362;-2.384;2022-09-27T00:08:07;6.40;;;0.83;;
65047;SDS011;52089;51.362;-2.384;2022-09-27T00:11:49;4.10;;;0.40;;
65047;SDS011;52089;51.362;-2.384;2022-09-27T00:15:31;4.27;;;0.70;;
65047;SDS011;52089;51.362;-2.384;2022-09-27T00:19:16;7.47;;;0.90;;
65047;SDS011;52089;51.362;-2.384;2022-09-27T00:23:00;6.47;;;0.70;;
65047;SDS011;52089;51.362;-2.384;2022-09-27T00:26:41;4.57;;;0.70;;
65047;SDS011;52089;51.362;-2.384;2022-09-27T00:30:23;4.07;;;0.60;;
65047;SDS011;52089;51.362;-2.384;2022-09-27T00:34:06;4.60;;;0.70;;
65047;SDS011;52089;51.362;-2.384;2022-09-27T00:37:48;4.40;;;0.60;;
65047;SDS011;52089;51.362;-2.384;2022-09-27T00:41:31;7.57;;;2.57;;
65047;SDS011;52089;51.362;-2.384;2022-09-27T00:45:15;8.73;;;2.13;;
65047;SDS011;52089;51.362;-2.384;2022-09-27T00:49:13;5.93;;;0.70;;
65047;SDS011;52089;51.362;-2.384;2022-09-27T00:53:09;7.00;;;1.40;;
65047;SDS011;52089;51.362;-2.384;2022-09-27T00:56:52;5.20;;;0.60;;
65047;SDS011;52089;51.362;-2.384;2022-09-27T01:00:35;9.77;;;0.90;;
65047;SDS011;52089;51.362;-2.384;2022-09-27T01:04:20;5.87;;;0.70;;
65047;SDS011;52089;51.362;-2.384;2022-09-27T01:08:04;9.03;;;0.80;;
65047;SDS011;52089;51.362;-2.384;2022-09-27T01:19:57;15.00;;;8.53;;
65047;SDS011;52089;51.362;-2.384;2022-09-27T01:35:52;6.57;;;0.80;;
65047;SDS011;52089;51.362;-2.384;2022-09-27T01:40:01;7.07;;;0.87;;
65047;SDS011;52089;51.362;-2.384;2022-09-27T01:44:05;10.53;;;1.27;;
65047;SDS011;52089;51.362;-2.384;2022-09-27T01:48:09;5.87;;;0.80;;
65047;SDS011;52089;51.362;-2.384;2022-09-27T01:52:06;6.37;;;0.77;;
65047;SDS011;52089;51.362;-2.384;2022-09-27T01:55:51;8.73;;;0.70;;
65047;SDS011;52089;51.362;-2.384;2022-09-27T01:59:40;6.70;;;0.93;;
65047;SDS011;52089;51.362;-2.384;2022-09-27T02:03:30;7.13;;;0.90;;
65047;SDS011;52089;51.362;-2.384;2022-09-27T02:07:19;6.97;;;0.80;;
65047;SDS011;52089;51.362;-2.384;2022-09-27T02:11:15;8.60;;;1.13;;
65047;SDS011;52089;51.362;-2.384;2022-09-27T02:14:59;8.07;;;0.97;;
65047;SDS011;52089;51.362;-2.384;2022-09-27T02:23:21;9.27;;;1.00;;
65047;SDS011;52089;51.362;-2.384;2022-09-27T02:27:16;10.80;;;1.27;;
65047;SDS011;52089;51.362;-2.384;2022-09-27T02:31:03;7.27;;;0.97;;
65047;SDS011;52089;51.362;-2.384;2022-09-27T02:34:45;5.27;;;0.80;;
65047;SDS011;52089;51.362;-2.384;2022-09-27T02:38:29;8.67;;;1.70;;
65047;SDS011;52089;51.362;-2.384;2022-09-27T02:42:11;12.73;;;1.30;;
65047;SDS011;52089;51.362;-2.384;2022-09-27T02:50:11;9.27;;;1.00;;
65047;SDS011;52089;51.362;-2.384;2022-09-27T03:02:02;9.30;;;0.80;;
65047;SDS011;52089;51.362;-2.384;2022-09-27T03:06:01;10.27;;;1.33;;
65047;SDS011;52089;51.362;-2.384;2022-09-27T03:09:49;5.83;;;0.83;;
65047;SDS011;52089;51.362;-2.384;2022-09-27T03:13:32;11.63;;;1.17;;
65047;SDS011;52089;51.362;-2.384;2022-09-27T03:17:36;12.00;;;1.60;;
65047;SDS011;52089;51.362;-2.384;2022-09-27T03:21:18;8.03;;;0.83;;
65047;SDS011;52089;51.362;-2.384;2022-09-27T03:25:00;6.30;;;1.00;;
65047;SDS011;52089;51.362;-2.384;2022-09-27T03:28:42;10.47;;;1.27;;
65047;SDS011;52089;51.362;-2.384;2022-09-27T03:32:24;14.27;;;1.80;;
65047;SDS011;52089;51.362;-2.384;2022-09-27T03:36:06;9.80;;;1.20;;
65047;SDS011;52089;51.362;-2.384;2022-09-27T03:39:48;14.10;;;1.07;;
65047;SDS011;52089;51.362;-2.384;2022-09-27T03:43:29;14.00;;;1.83;;
65047;SDS011;52089;51.362;-2.384;2022-09-27T03:47:11;14.57;;;1.47;;
65047;SDS011;52089;51.362;-2.384;2022-09-27T03:50:53;10.33;;;1.60;;
65047;SDS011;52089;51.362;-2.384;2022-09-27T03:54:35;15.03;;;1.87;;
65047;SDS011;52089;51.362;-2.384;2022-09-27T03:58:16;13.03;;;1.63;;
65047;SDS011;52089;51.362;-2.384;2022-09-27T04:01:58;12.73;;;1.43;;
65047;SDS011;52089;51.362;-2.384;2022-09-27T04:05:40;14.67;;;1.73;;
65047;SDS011;52089;51.362;-2.384;2022-09-27T04:09:21;15.30;;;1.63;;
65047;SDS011;52089;51.362;-2.384;2022-09-27T04:13:03;14.57;;;1.97;;
65047;SDS011;52089;51.362;-2.384;2022-09-27T04:16:46;15.70;;;1.70;;
65047;SDS011;52089;51.362;-2.384;2022-09-27T04:20:27;15.63;;;1.80;;
65047;SDS011;52089;51.362;-2.384;2022-09-27T04:24:09;11.13;;;1.40;;
65047;SDS011;52089;51.362;-2.384;2022-09-27T04:27:52;13.63;;;1.40;;
65047;SDS011;52089;51.362;-2.384;2022-09-27T04:31:35;14.60;;;2.10;;
65047;SDS011;52089;51.362;-2.384;2022-09-27T04:35:18;12.53;;;1.80;;
65047;SDS011;52089;51.362;-2.384;2022-09-27T04:39:18;15.07;;;1.63;;
65047;SDS011;52089;51.362;-2.384;2022-09-27T04:43:00;11.73;;;1.73;;
65047;SDS011;52089;51.362;-2.384;2022-09-27T04:46:41;14.03;;;1.83;;
65047;SDS011;52089;51.362;-2.384;2022-09-27T04:50:23;15.10;;;1.67;;
65047;SDS011;52089;51.362;-2.384;2022-09-27T04:54:05;15.17;;;1.73;;
65047;SDS011;52089;51.362;-2.384;2022-09-27T04:57:47;15.83;;;1.70;;
65047;SDS011;52089;51.362;-2.384;2022-09-27T05:01:29;17.03;;;2.17;;
65047;SDS011;52089;51.362;-2.384;2022-09-27T05:05:11;18.27;;;1.87;;
65047;SDS011;52089;51.362;-2.384;2022-09-27T05:08:53;15.50;;;1.53;;
65047;SDS011;52089;51.362;-2.384;2022-09-27T05:12:35;11.03;;;1.20;;
65047;SDS011;52089;51.362;-2.384;2022-09-27T05:16:17;13.77;;;1.67;;
65047;SDS011;52089;51.362;-2.384;2022-09-27T05:20:00;12.80;;;1.70;;
65047;SDS011;52089;51.362;-2.384;2022-09-27T05:23:42;15.30;;;1.60;;
65047;SDS011;52089;51.362;-2.384;2022-09-27T05:27:28;15.77;;;1.60;;
65047;SDS011;52089;51.362;-2.384;2022-09-27T05:31:11;18.57;;;2.40;;
65047;SDS011;52089;51.362;-2.384;2022-09-27T05:34:54;15.60;;;1.87;;
65047;SDS011;52089;51.362;-2.384;2022-09-27T05:38:36;13.33;;;2.00;;
65047;SDS011;52089;51.362;-2.384;2022-09-27T05:42:18;9.27;;;1.60;;
65047;SDS011;52089;51.362;-2.384;2022-09-27T05:45:59;15.87;;;2.03;;
65047;SDS011;52089;51.362;-2.384;2022-09-27T05:49:41;17.70;;;2.20;;
65047;SDS011;52089;51.362;-2.384;2022-09-27T05:53:23;14.43;;;1.80;;
65047;SDS011;52089;51.362;-2.384;2022-09-27T05:57:05;15.17;;;2.10;;
65047;SDS011;52089;51.362;-2.384;2022-09-27T06:00:48;14.40;;;1.73;;
65047;SDS011;52089;51.362;-2.384;2022-09-27T06:04:30;17.00;;;1.77;;
65047;SDS011;52089;51.362;-2.384;2022-09-27T06:08:12;11.63;;;1.90;;
65047;SDS011;52089;51.362;-2.384;2022-09-27T06:11:53;15.90;;;1.77;;
65047;SDS011;52089;51.362;-2.384;2022-09-27T06:15:36;32.13;;;7.83;;
65047;SDS011;52089;51.362;-2.384;2022-09-27T06:19:19;19.13;;;2.30;;
65047;SDS011;52089;51.362;-2.384;2022-09-27T06:23:11;13.70;;;2.30;;
65047;SDS011;52089;51.362;-2.384;2022-09-27T06:26:53;16.03;;;2.40;;
65047;SDS011;52089;51.362;-2.384;2022-09-27T06:30:39;16.37;;;2.30;;
65047;SDS011;52089;51.362;-2.384;2022-09-27T06:34:23;18.70;;;2.50;;
65047;SDS011;52089;51.362;-2.384;2022-09-27T06:38:05;14.40;;;1.87;;
65047;SDS011;52089;51.362;-2.384;2022-09-27T06:41:51;12.80;;;1.73;;
65047;SDS011;52089;51.362;-2.384;2022-09-27T06:45:37;15.07;;;2.10;;
65047;SDS011;52089;51.362;-2.384;2022-09-27T06:49:20;19.00;;;4.87;;
65047;SDS011;52089;51.362;-2.384;2022-09-27T06:53:06;20.07;;;2.60;;
65047;SDS011;52089;51.362;-2.384;2022-09-27T06:56:50;22.23;;;3.07;;
65047;SDS011;52089;51.362;-2.384;2022-09-27T07:00:32;23.67;;;2.87;;
65047;SDS011;52089;51.362;-2.384;2022-09-27T07:04:14;17.53;;;2.40;;
65047;SDS011;52089;51.362;-2.384;2022-09-27T07:07:56;16.67;;;2.43;;
65047;SDS011;52089;51.362;-2.384;2022-09-27T07:11:38;23.63;;;2.87;;
65047;SDS011;52089;51.362;-2.384;2022-09-27T07:15:23;19.53;;;2.90;;
65047;SDS011;52089;51.362;-2.384;2022-09-27T07:19:05;14.53;;;2.33;;
65047;SDS011;52089;51.362;-2.384;2022-09-27T07:22:48;23.77;;;2.83;;
65047;SDS011;52089;51.362;-2.384;2022-09-27T07:26:30;15.77;;;2.40;;
65047;SDS011;52089;51.362;-2.384;2022-09-27T07:30:11;23.20;;;2.77;;
65047;SDS011;52089;51.362;-2.384;2022-09-27T07:33:53;17.10;;;2.60;;
65047;SDS011;52089;51.362;-2.384;2022-09-27T07:37:36;22.63;;;2.90;;
65047;SDS011;52089;51.362;-2.384;2022-09-27T07:41:18;15.00;;;2.37;;
65047;SDS011;52089;51.362;-2.384;2022-09-27T07:45:00;16.23;;;2.27;;
65047;SDS011;52089;51.362;-2.384;2022-09-27T07:48:45;25.57;;;8.10;;
65047;SDS011;52089;51.362;-2.384;2022-09-27T07:52:28;21.90;;;3.33;;
65047;SDS011;52089;51.362;-2.384;2022-09-27T07:56:10;29.30;;;8.60;;
65047;SDS011;52089;51.362;-2.384;2022-09-27T07:59:52;21.73;;;3.10;;
65047;SDS011;52089;51.362;-2.384;2022-09-27T08:03:33;22.37;;;2.73;;
65047;SDS011;52089;51.362;-2.384;2022-09-27T08:07:16;15.67;;;2.67;;
65047;SDS011;52089;51.362;-2.384;2022-09-27T08:10:58;17.30;;;2.40;;
65047;SDS011;52089;51.362;-2.384;2022-09-27T08:14:39;20.47;;;3.13;;
65047;SDS011;52089;51.362;-2.384;2022-09-27T08:18:28;30.57;;;3.67;;
65047;SDS011;52089;51.362;-2.384;2022-09-27T08:22:10;20.23;;;3.40;;
65047;SDS011;52089;51.362;-2.384;2022-09-27T08:25:56;29.20;;;3.30;;
65047;SDS011;52089;51.362;-2.384;2022-09-27T08:29:39;25.10;;;3.47;;
65047;SDS011;52089;51.362;-2.384;2022-09-27T08:33:22;23.00;;;3.57;;
65047;SDS011;52089;51.362;-2.384;2022-09-27T08:37:12;26.83;;;4.22;;
65047;SDS011;52089;51.362;-2.384;2022-09-27T08:40:58;19.83;;;3.33;;
65047;SDS011;52089;51.362;-2.384;2022-09-27T08:44:49;21.40;;;3.53;;
65047;SDS011;52089;51.362;-2.384;2022-09-27T08:48:43;21.57;;;3.27;;
65047;SDS011;52089;51.362;-2.384;2022-09-27T08:52:34;19.30;;;3.57;;
65047;SDS011;52089;51.362;-2.384;2022-09-27T08:56:24;19.43;;;3.83;;
65047;SDS011;52089;51.362;-2.384;2022-09-27T09:00:07;20.37;;;3.30;;
65047;SDS011;52089;51.362;-2.384;2022-09-27T09:03:53;20.80;;;2.97;;
65047;SDS011;52089;51.362;-2.384;2022-09-27T09:15:37;17.37;;;3.27;;
65047;SDS011;52089;51.362;-2.384;2022-09-27T09:31:57;12.40;;;2.83;;
65047;SDS011;52089;51.362;-2.384;2022-09-27T09:39:38;15.60;;;2.60;;
65047;SDS011;52089;51.362;-2.384;2022-09-27T09:47:20;9.47;;;3.30;;
65047;SDS011;52089;51.362;-2.384;2022-09-27T09:51:11;9.77;;;2.33;;
65047;SDS011;52089;51.362;-2.384;2022-09-27T09:55:05;14.03;;;2.87;;
65047;SDS011;52089;51.362;-2.384;2022-09-27T09:58:56;10.03;;;2.30;;
65047;SDS011;52089;51.362;-2.384;2022-09-27T10:02:43;9.70;;;2.37;;
65047;SDS011;52089;51.362;-2.384;2022-09-27T10:06:27;12.03;;;2.63;;
65047;SDS011;52089;51.362;-2.384;2022-09-27T10:10:12;13.00;;;2.77;;
65047;SDS011;52089;51.362;-2.384;2022-09-27T10:13:56;9.00;;;2.40;;
65047;SDS011;52089;51.362;-2.384;2022-09-27T10:17:40;11.40;;;2.40;;
65047;SDS011;52089;51.362;-2.384;2022-09-27T10:21:25;11.77;;;2.27;;
65047;SDS011;52089;51.362;-2.384;2022-09-27T10:25:09;10.57;;;2.40;;
65047;SDS011;52089;51.362;-2.384;2022-09-27T10:28:51;15.60;;;2.40;;
65047;SDS011;52089;51.362;-2.384;2022-09-27T10:32:33;10.73;;;2.13;;
65047;SDS011;52089;51.362;-2.384;2022-09-27T10:36:24;12.20;;;1.70;;
65047;SDS011;52089;51.362;-2.384;2022-09-27T10:40:28;17.60;;;8.40;;
65047;SDS011;52089;51.362;-2.384;2022-09-27T10:44:27;9.67;;;2.07;;
65047;SDS011;52089;51.362;-2.384;2022-09-27T10:48:17;11.57;;;2.07;;
65047;SDS011;52089;51.362;-2.384;2022-09-27T10:52:19;14.57;;;2.40;;
65047;SDS011;52089;51.362;-2.384;2022-09-27T10:56:04;14.93;;;2.27;;
65047;SDS011;52089;51.362;-2.384;2022-09-27T10:59:51;13.27;;;2.57;;
65047;SDS011;52089;51.362;-2.384;2022-09-27T11:03:36;14.03;;;2.30;;
65047;SDS011;52089;51.362;-2.384;2022-09-27T11:07:25;13.23;;;2.33;;
65047;SDS011;52089;51.362;-2.384;2022-09-27T11:14:55;11.97;;;2.40;;
65047;SDS011;52089;51.362;-2.384;2022-09-27T11:30:48;15.63;;;2.90;;
65047;SDS011;52089;51.362;-2.384;2022-09-27T12:10:45;12.87;;;2.27;;
65047;SDS011;52089;51.362;-2.384;2022-09-27T12:14:42;14.83;;;2.23;;
65047;SDS011;52089;51.362;-2.384;2022-09-27T12:18:37;16.83;;;2.17;;
65047;SDS011;52089;51.362;-2.384;2022-09-27T12:22:24;12.53;;;2.53;;
65047;SDS011;52089;51.362;-2.384;2022-09-27T12:26:41;15.77;;;1.87;;
65047;SDS011;52089;51.362;-2.384;2022-09-27T12:30:24;14.73;;;2.33;;
65047;SDS011;52089;51.362;-2.384;2022-09-27T12:38:09;12.83;;;2.33;;
65047;SDS011;52089;51.362;-2.384;2022-09-27T12:42:09;9.10;;;1.80;;
65047;SDS011;52089;51.362;-2.384;2022-09-27T12:54:26;14.43;;;1.90;;
65047;SDS011;52089;51.362;-2.384;2022-09-27T12:58:46;12.47;;;2.47;;
65047;SDS011;52089;51.362;-2.384;2022-09-27T13:10:39;11.93;;;1.80;;
65047;SDS011;52089;51.362;-2.384;2022-09-27T13:14:33;9.77;;;1.97;;
65047;SDS011;52089;51.362;-2.384;2022-09-27T13:22:35;7.23;;;1.90;;
65047;SDS011;52089;51.362;-2.384;2022-09-27T13:26:20;10.30;;;1.90;;
65047;SDS011;52089;51.362;-2.384;2022-09-27T13:33:59;8.93;;;1.73;;
65047;SDS011;52089;51.362;-2.384;2022-09-27T13:37:45;9.83;;;1.70;;
65047;SDS011;52089;51.362;-2.384;2022-09-27T13:41:34;9.82;;;1.50;;
65047;SDS011;52089;51.362;-2.384;2022-09-27T13:49:37;12.83;;;2.53;;
65047;SDS011;52089;51.362;-2.384;2022-09-27T14:05:13;13.93;;;2.47;;
65047;SDS011;52089;51.362;-2.384;2022-09-27T14:09:02;15.33;;;2.70;;
65047;SDS011;52089;51.362;-2.384;2022-09-27T14:12:46;15.80;;;2.90;;
65047;SDS011;52089;51.362;-2.384;2022-09-27T14:16:29;17.93;;;3.10;;
65047;SDS011;52089;51.362;-2.384;2022-09-27T14:20:33;14.90;;;2.90;;
65047;SDS011;52089;51.362;-2.384;2022-09-27T14:24:23;13.47;;;2.23;;
65047;SDS011;52089;51.362;-2.384;2022-09-27T14:28:17;18.87;;;2.70;;
65047;SDS011;52089;51.362;-2.384;2022-09-27T14:32:03;16.37;;;3.13;;
65047;SDS011;52089;51.362;-2.384;2022-09-27T14:35:49;13.90;;;2.03;;
65047;SDS011;52089;51.362;-2.384;2022-09-27T14:40:05;9.83;;;1.63;;
65047;SDS011;52089;51.362;-2.384;2022-09-27T14:43:59;7.23;;;1.23;;
65047;SDS011;52089;51.362;-2.384;2022-09-27T14:47:45;9.27;;;1.43;;
65047;SDS011;52089;51.362;-2.384;2022-09-27T14:51:29;9.17;;;2.17;;
65047;SDS011;52089;51.362;-2.384;2022-09-27T14:55:15;8.27;;;1.27;;
65047;SDS011;52089;51.362;-2.384;2022-09-27T14:59:03;8.73;;;1.70;;
65047;SDS011;52089;51.362;-2.384;2022-09-27T15:02:54;9.00;;;1.60;;
65047;SDS011;52089;51.362;-2.384;2022-09-27T15:06:36;8.13;;;1.80;;
65047;SDS011;52089;51.362;-2.384;2022-09-27T15:10:19;17.50;;;5.17;;
65047;SDS011;52089;51.362;-2.384;2022-09-27T15:14:03;17.63;;;2.63;;
65047;SDS011;52089;51.362;-2.384;2022-09-27T15:17:45;13.77;;;2.30;;
65047;SDS011;52089;51.362;-2.384;2022-09-27T15:21:32;10.27;;;2.40;;
65047;SDS011;52089;51.362;-2.384;2022-09-27T15:25:17;14.40;;;1.93;;
65047;SDS011;52089;51.362;-2.384;2022-09-27T15:29:05;10.37;;;1.90;;
65047;SDS011;52089;51.362;-2.384;2022-09-27T15:32:57;12.03;;;1.70;;
65047;SDS011;52089;51.362;-2.384;2022-09-27T15:36:49;11.07;;;2.07;;
65047;SDS011;52089;51.362;-2.384;2022-09-27T15:48:23;7.97;;;1.37;;
65047;SDS011;52089;51.362;-2.384;2022-09-27T15:52:05;9.90;;;1.70;;
65047;SDS011;52089;51.362;-2.384;2022-09-27T15:55:49;11.10;;;1.90;;
65047;SDS011;52089;51.362;-2.384;2022-09-27T15:59:32;8.57;;;1.60;;
65047;SDS011;52089;51.362;-2.384;2022-09-27T16:03:15;7.87;;;1.50;;
65047;SDS011;52089;51.362;-2.384;2022-09-27T16:06:58;10.67;;;2.30;;
65047;SDS011;52089;51.362;-2.384;2022-09-27T16:10:43;13.33;;;2.27;;
65047;SDS011;52089;51.362;-2.384;2022-09-27T16:14:27;10.97;;;2.00;;
65047;SDS011;52089;51.362;-2.384;2022-09-27T16:18:09;12.17;;;2.30;;
65047;SDS011;52089;51.362;-2.384;2022-09-27T16:21:51;8.63;;;1.60;;
65047;SDS011;52089;51.362;-2.384;2022-09-27T16:25:33;11.20;;;1.70;;
65047;SDS011;52089;51.362;-2.384;2022-09-27T16:29:15;9.10;;;2.70;;
65047;SDS011;52089;51.362;-2.384;2022-09-27T16:32:57;8.70;;;1.63;;
65047;SDS011;52089;51.362;-2.384;2022-09-27T16:36:39;10.87;;;1.80;;
65047;SDS011;52089;51.362;-2.384;2022-09-27T16:40:21;10.40;;;1.33;;
65047;SDS011;52089;51.362;-2.384;2022-09-27T16:44:07;9.97;;;1.57;;
65047;SDS011;52089;51.362;-2.384;2022-09-27T16:47:50;10.17;;;1.90;;
65047;SDS011;52089;51.362;-2.384;2022-09-27T16:51:32;11.37;;;1.60;;
65047;SDS011;52089;51.362;-2.384;2022-09-27T16:55:34;9.50;;;1.48;;
65047;SDS011;52089;51.362;-2.384;2022-09-27T16:59:16;7.07;;;1.30;;
65047;SDS011;52089;51.362;-2.384;2022-09-27T17:02:58;7.97;;;1.20;;
65047;SDS011;52089;51.362;-2.384;2022-09-27T17:06:40;9.00;;;1.23;;
65047;SDS011;52089;51.362;-2.384;2022-09-27T17:10:23;7.87;;;1.37;;
65047;SDS011;52089;51.362;-2.384;2022-09-27T17:14:05;5.73;;;1.07;;
65047;SDS011;52089;51.362;-2.384;2022-09-27T17:17:49;14.93;;;7.43;;
65047;SDS011;52089;51.362;-2.384;2022-09-27T17:21:31;6.73;;;1.50;;
65047;SDS011;52089;51.362;-2.384;2022-09-27T17:25:18;6.33;;;1.30;;
65047;SDS011;52089;51.362;-2.384;2022-09-27T17:29:00;10.83;;;1.40;;
65047;SDS011;52089;51.362;-2.384;2022-09-27T17:32:41;6.07;;;1.27;;
65047;SDS011;52089;51.362;-2.384;2022-09-27T17:36:24;8.67;;;1.53;;
65047;SDS011;52089;51.362;-2.384;2022-09-27T17:40:09;7.03;;;1.30;;
65047;SDS011;52089;51.362;-2.384;2022-09-27T17:43:56;7.77;;;1.30;;
65047;SDS011;52089;51.362;-2.384;2022-09-27T17:47:39;5.67;;;1.30;;
65047;SDS011;52089;51.362;-2.384;2022-09-27T17:51:40;10.13;;;1.60;;
65047;SDS011;52089;51.362;-2.384;2022-09-27T17:55:22;12.63;;;1.87;;
65047;SDS011;52089;51.362;-2.384;2022-09-27T17:59:05;11.57;;;1.87;;
65047;SDS011;52089;51.362;-2.384;2022-09-27T18:02:48;5.67;;;1.30;;
65047;SDS011;52089;51.362;-2.384;2022-09-27T18:06:30;13.73;;;3.23;;
65047;SDS011;52089;51.362;-2.384;2022-09-27T18:10:12;10.43;;;1.77;;
65047;SDS011;52089;51.362;-2.384;2022-09-27T18:13:54;9.80;;;2.07;;
65047;SDS011;52089;51.362;-2.384;2022-09-27T18:17:40;11.03;;;1.67;;
65047;SDS011;52089;51.362;-2.384;2022-09-27T18:21:23;12.37;;;1.70;;
65047;SDS011;52089;51.362;-2.384;2022-09-27T18:25:06;8.03;;;1.37;;
65047;SDS011;52089;51.362;-2.384;2022-09-27T18:28:49;11.00;;;2.03;;
65047;SDS011;52089;51.362;-2.384;2022-09-27T18:32:33;9.87;;;1.83;;
65047;SDS011;52089;51.362;-2.384;2022-09-27T18:36:16;8.73;;;1.30;;
65047;SDS011;52089;51.362;-2.384;2022-09-27T18:39:59;12.10;;;1.70;;
65047;SDS011;52089;51.362;-2.384;2022-09-27T18:43:41;7.80;;;1.50;;
65047;SDS011;52089;51.362;-2.384;2022-09-27T18:47:24;9.77;;;1.73;;
65047;SDS011;52089;51.362;-2.384;2022-09-27T18:51:08;9.13;;;1.80;;
65047;SDS011;52089;51.362;-2.384;2022-09-27T18:54:52;9.17;;;1.77;;
65047;SDS011;52089;51.362;-2.384;2022-09-27T18:58:35;6.10;;;1.60;;
65047;SDS011;52089;51.362;-2.384;2022-09-27T19:02:17;6.63;;;1.60;;
65047;SDS011;52089;51.362;-2.384;2022-09-27T19:06:04;9.37;;;3.13;;
65047;SDS011;52089;51.362;-2.384;2022-09-27T19:09:56;7.33;;;1.13;;
65047;SDS011;52089;51.362;-2.384;2022-09-27T19:13:38;9.07;;;1.60;;
65047;SDS011;52089;51.362;-2.384;2022-09-27T19:17:31;9.33;;;1.20;;
65047;SDS011;52089;51.362;-2.384;2022-09-27T19:21:14;6.57;;;1.40;;
65047;SDS011;52089;51.362;-2.384;2022-09-27T19:24:58;8.17;;;1.20;;
65047;SDS011;52089;51.362;-2.384;2022-09-27T19:28:40;7.97;;;1.87;;
65047;SDS011;52089;51.362;-2.384;2022-09-27T19:32:23;6.53;;;1.90;;
65047;SDS011;52089;51.362;-2.384;2022-09-27T19:36:06;9.57;;;1.70;;
65047;SDS011;52089;51.362;-2.384;2022-09-27T19:39:49;11.03;;;1.30;;
65047;SDS011;52089;51.362;-2.384;2022-09-27T19:43:35;7.93;;;1.30;;
65047;SDS011;52089;51.362;-2.384;2022-09-27T19:47:17;8.80;;;1.63;;
65047;SDS011;52089;51.362;-2.384;2022-09-27T19:50:59;7.17;;;1.50;;
65047;SDS011;52089;51.362;-2.384;2022-09-27T19:54:41;10.10;;;1.40;;
65047;SDS011;52089;51.362;-2.384;2022-09-27T19:58:24;8.90;;;1.73;;
65047;SDS011;52089;51.362;-2.384;2022-09-27T20:02:06;7.47;;;1.23;;
65047;SDS011;52089;51.362;-2.384;2022-09-27T20:05:52;7.97;;;1.40;;
65047;SDS011;52089;51.362;-2.384;2022-09-27T20:09:35;5.43;;;1.20;;
65047;SDS011;52089;51.362;-2.384;2022-09-27T20:13:17;10.57;;;1.43;;
65047;SDS011;52089;51.362;-2.384;2022-09-27T20:16:58;11.33;;;1.33;;
65047;SDS011;52089;51.362;-2.384;2022-09-27T20:20:40;9.03;;;1.50;;
65047;SDS011;52089;51.362;-2.384;2022-09-27T20:24:22;8.43;;;1.37;;
65047;SDS011;52089;51.362;-2.384;2022-09-27T20:28:04;8.47;;;1.10;;
65047;SDS011;52089;51.362;-2.384;2022-09-27T20:31:46;5.33;;;1.03;;
65047;SDS011;52089;51.362;-2.384;2022-09-27T20:35:51;8.40;;;1.57;;
65047;SDS011;52089;51.362;-2.384;2022-09-27T20:39:34;7.97;;;1.37;;
65047;SDS011;52089;51.362;-2.384;2022-09-27T20:43:15;10.33;;;3.10;;
65047;SDS011;52089;51.362;-2.384;2022-09-27T20:46:57;7.80;;;4.53;;
65047;SDS011;52089;51.362;-2.384;2022-09-27T20:50:39;8.43;;;2.60;;
65047;SDS011;52089;51.362;-2.384;2022-09-27T20:54:21;9.03;;;2.03;;
65047;SDS011;52089;51.362;-2.384;2022-09-27T20:58:02;14.33;;;2.17;;
65047;SDS011;52089;51.362;-2.384;2022-09-27T21:01:44;14.33;;;1.70;;
65047;SDS011;52089;51.362;-2.384;2022-09-27T21:05:27;10.53;;;2.10;;
65047;SDS011;52089;51.362;-2.384;2022-09-27T21:09:09;10.23;;;1.60;;
65047;SDS011;52089;51.362;-2.384;2022-09-27T21:12:58;9.87;;;1.10;;
65047;SDS011;52089;51.362;-2.384;2022-09-27T21:16:40;8.40;;;1.00;;
65047;SDS011;52089;51.362;-2.384;2022-09-27T21:20:22;10.93;;;1.20;;
65047;SDS011;52089;51.362;-2.384;2022-09-27T21:24:04;7.27;;;1.30;;
65047;SDS011;52089;51.362;-2.384;2022-09-27T21:27:45;9.57;;;1.50;;
65047;SDS011;52089;51.362;-2.384;2022-09-27T21:31:33;8.83;;;1.60;;
65047;SDS011;52089;51.362;-2.384;2022-09-27T21:35:16;7.90;;;1.37;;
65047;SDS011;52089;51.362;-2.384;2022-09-27T21:38:57;9.57;;;1.87;;
65047;SDS011;52089;51.362;-2.384;2022-09-27T21:42:39;9.07;;;1.27;;
65047;SDS011;52089;51.362;-2.384;2022-09-27T21:46:25;9.33;;;1.40;;
65047;SDS011;52089;51.362;-2.384;2022-09-27T21:50:08;10.40;;;1.57;;
65047;SDS011;52089;51.362;-2.384;2022-09-27T21:53:51;9.23;;;1.47;;
65047;SDS011;52089;51.362;-2.384;2022-09-27T21:57:34;12.53;;;1.73;;
65047;SDS011;52089;51.362;-2.384;2022-09-27T22:01:17;12.50;;;1.70;;
65047;SDS011;52089;51.362;-2.384;2022-09-27T22:05:02;11.10;;;1.50;;
65047;SDS011;52089;51.362;-2.384;2022-09-27T22:08:44;12.23;;;1.43;;
65047;SDS011;52089;51.362;-2.384;2022-09-27T22:12:27;11.80;;;1.50;;
65047;SDS011;52089;51.362;-2.384;2022-09-27T22:16:09;13.20;;;1.30;;
65047;SDS011;52089;51.362;-2.384;2022-09-27T22:19:53;14.23;;;2.27;;
65047;SDS011;52089;51.362;-2.384;2022-09-27T22:23:35;15.80;;;2.40;;
65047;SDS011;52089;51.362;-2.384;2022-09-27T22:27:17;21.47;;;8.00;;
65047;SDS011;52089;51.362;-2.384;2022-09-27T22:31:02;40.27;;;26.70;;
65047;SDS011;52089;51.362;-2.384;2022-09-27T22:34:45;14.37;;;2.77;;
65047;SDS011;52089;51.362;-2.384;2022-09-27T22:38:26;6.87;;;1.50;;
65047;SDS011;52089;51.362;-2.384;2022-09-27T22:42:08;13.00;;;2.07;;
65047;SDS011;52089;51.362;-2.384;2022-09-27T22:45:50;9.13;;;4.30;;
65047;SDS011;52089;51.362;-2.384;2022-09-27T22:49:32;19.17;;;6.23;;
65047;SDS011;52089;51.362;-2.384;2022-09-27T22:53:14;13.37;;;2.57;;
65047;SDS011;52089;51.362;-2.384;2022-09-27T22:56:55;9.77;;;1.47;;
65047;SDS011;52089;51.362;-2.384;2022-09-27T23:00:37;13.83;;;2.00;;
65047;SDS011;52089;51.362;-2.384;2022-09-27T23:04:19;12.50;;;1.47;;
65047;SDS011;52089;51.362;-2.384;2022-09-27T23:08:01;10.83;;;1.70;;
65047;SDS011;52089;51.362;-2.384;2022-09-27T23:11:43;11.80;;;1.23;;
65047;SDS011;52089;51.362;-2.384;2022-09-27T23:15:24;11.50;;;1.53;;
65047;SDS011;52089;51.362;-2.384;2022-09-27T23:19:06;11.23;;;1.13;;
65047;SDS011;52089;51.362;-2.384;2022-09-27T23:22:49;12.93;;;1.40;;
65047;SDS011;52089;51.362;-2.384;2022-09-27T23:26:32;10.60;;;1.50;;
65047;SDS011;52089;51.362;-2.384;2022-09-27T23:30:14;12.07;;;2.03;;
65047;SDS011;52089;51.362;-2.384;2022-09-27T23:34:01;11.07;;;1.13;;
65047;SDS011;52089;51.362;-2.384;2022-09-27T23:37:44;11.03;;;1.37;;
65047;SDS011;52089;51.362;-2.384;2022-09-27T23:41:26;11.37;;;1.23;;
65047;SDS011;52089;51.362;-2.384;2022-09-27T23:45:08;10.97;;;1.43;;
65047;SDS011;52089;51.362;-2.384;2022-09-27T23:48:51;9.87;;;1.20;;
65047;SDS011;52089;51.362;-2.384;2022-09-27T23:52:33;9.50;;;0.93;;
65047;SDS011;52089;51.362;-2.384;2022-09-27T23:56:15;11.27;;;1.63;;
65047;SDS011;52089;51.362;-2.384;2022-09-27T23:59:58;18.07;;;1.57;;
